createdAt,value
2016-10-12T00:00:19.778Z,0
2016-10-12T00:01:19.426Z,0
2016-10-12T00:02:20.063Z,0
2016-10-12T00:03:20.069Z,0
2016-10-12T00:04:19.833Z,0
2016-10-12T00:05:20.113Z,0
2016-10-12T00:06:20.131Z,0
2016-10-12T00:07:20.124Z,0
2016-10-12T00:08:20.173Z,0
2016-10-12T00:09:20.172Z,0
2016-10-12T00:10:19.883Z,0
2016-10-12T00:11:20.230Z,0
2016-10-12T00:12:20.016Z,0
2016-10-12T00:13:19.992Z,0
2016-10-12T00:14:20.279Z,0
2016-10-12T00:15:20.288Z,0
2016-10-12T00:16:19.990Z,0
2016-10-12T00:17:20.336Z,0
2016-10-12T00:18:20.353Z,0
2016-10-12T00:19:20.371Z,0
2016-10-12T00:20:20.077Z,0
2016-10-12T00:21:20.405Z,0
2016-10-12T00:22:20.405Z,0
2016-10-12T00:23:20.110Z,0
2016-10-12T00:24:20.221Z,0
2016-10-12T00:25:20.465Z,0
2016-10-12T00:26:20.484Z,0
2016-10-12T00:27:20.194Z,0
2016-10-12T00:28:20.565Z,0
2016-10-12T00:29:20.532Z,0
2016-10-12T00:30:20.244Z,0
2016-10-12T00:31:20.577Z,0
2016-10-12T00:32:20.604Z,0
2016-10-12T00:33:20.612Z,0
2016-10-12T00:34:20.322Z,0
2016-10-12T00:35:20.652Z,0
2016-10-12T00:36:20.801Z,0
2016-10-12T00:37:20.698Z,0
2016-10-12T00:38:20.693Z,0
2016-10-12T00:39:20.475Z,0
2016-10-12T00:40:20.856Z,0
2016-10-12T00:41:20.766Z,0
2016-10-12T00:42:20.784Z,0
2016-10-12T00:43:20.792Z,0
2016-10-12T00:44:20.504Z,0
2016-10-12T00:45:20.831Z,0
2016-10-12T00:46:20.850Z,0
2016-10-12T00:47:20.892Z,0
2016-10-12T00:48:20.684Z,0
2016-10-12T00:49:20.889Z,0
2016-10-12T00:50:20.907Z,0
2016-10-12T00:51:20.930Z,0
2016-10-12T00:52:20.954Z,0
2016-10-12T00:53:21.014Z,0
2016-10-12T00:54:20.983Z,0
2016-10-12T00:55:21.013Z,0
2016-10-12T00:56:20.733Z,0
2016-10-12T00:57:21.040Z,0
2016-10-12T00:58:20.762Z,0
2016-10-12T00:59:21.072Z,0
2016-10-12T01:00:21.104Z,0
2016-10-12T01:01:21.113Z,0
2016-10-12T01:02:21.120Z,0
2016-10-12T01:03:20.537Z,0
2016-10-12T01:04:21.174Z,0
2016-10-12T01:05:20.886Z,0
2016-10-12T01:06:21.230Z,0
2016-10-12T01:07:21.265Z,0
2016-10-12T01:08:20.932Z,0
2016-10-12T01:09:21.265Z,0
2016-10-12T01:10:21.277Z,0
2016-10-12T01:11:20.986Z,0
2016-10-12T01:12:21.311Z,0
2016-10-12T01:13:21.344Z,0
2016-10-12T01:14:21.053Z,0
2016-10-12T01:15:21.374Z,0
2016-10-12T01:16:21.076Z,0
2016-10-12T01:17:21.482Z,0
2016-10-12T01:18:21.492Z,0
2016-10-12T01:19:20.847Z,0
2016-10-12T01:20:21.550Z,0
2016-10-12T01:21:21.502Z,0
2016-10-12T01:22:21.495Z,0
2016-10-12T01:23:21.226Z,0
2016-10-12T01:24:21.366Z,0
2016-10-12T01:25:21.547Z,0
2016-10-12T01:26:21.297Z,0
2016-10-12T01:27:20.967Z,0
2016-10-12T01:28:21.604Z,0
2016-10-12T01:29:21.615Z,0
2016-10-12T01:30:21.755Z,0
2016-10-12T01:31:21.366Z,0
2016-10-12T01:32:21.726Z,0
2016-10-12T01:33:21.380Z,0
2016-10-12T01:34:21.712Z,0
2016-10-12T01:35:21.816Z,0
2016-10-12T01:36:21.739Z,0
2016-10-12T01:37:21.628Z,0
2016-10-12T01:38:21.781Z,0
2016-10-12T01:39:21.483Z,0
2016-10-12T01:40:21.829Z,0
2016-10-12T01:41:21.826Z,0
2016-10-12T01:42:21.544Z,0
2016-10-12T01:43:21.573Z,0
2016-10-12T01:44:21.945Z,0
2016-10-12T01:45:21.682Z,0
2016-10-12T01:46:21.998Z,0
2016-10-12T01:47:21.336Z,0
2016-10-12T01:48:21.653Z,0
2016-10-12T01:49:21.986Z,0
2016-10-12T01:50:22.015Z,0
2016-10-12T01:51:22.042Z,0
2016-10-12T01:52:22.028Z,0
2016-10-12T01:53:22.064Z,0
2016-10-12T01:54:21.816Z,0
2016-10-12T01:55:22.086Z,0
2016-10-12T01:56:21.805Z,0
2016-10-12T01:57:21.815Z,0
2016-10-12T01:58:21.923Z,0
2016-10-12T01:59:21.935Z,0
2016-10-12T02:00:21.887Z,0
2016-10-12T02:01:22.207Z,0
2016-10-12T02:02:21.929Z,0
2016-10-12T02:03:22.223Z,0
2016-10-12T02:04:22.239Z,0
2016-10-12T02:05:21.987Z,0
2016-10-12T02:06:22.288Z,0
2016-10-12T02:07:22.316Z,0
2016-10-12T02:08:22.016Z,0
2016-10-12T02:09:22.038Z,0
2016-10-12T02:10:22.061Z,0
2016-10-12T02:11:22.146Z,0
2016-10-12T02:12:22.396Z,0
2016-10-12T02:13:22.426Z,0
2016-10-12T02:14:22.437Z,0
2016-10-12T02:15:22.451Z,0
2016-10-12T02:16:22.175Z,0
2016-10-12T02:17:22.484Z,0
2016-10-12T02:18:22.552Z,0
2016-10-12T02:19:22.220Z,0
2016-10-12T02:20:22.538Z,0
2016-10-12T02:21:22.556Z,0
2016-10-12T02:22:22.285Z,0
2016-10-12T02:23:22.281Z,0
2016-10-12T02:24:22.618Z,0
2016-10-12T02:25:22.712Z,0
2016-10-12T02:26:22.345Z,0
2016-10-12T02:27:22.706Z,0
2016-10-12T02:28:22.377Z,0
2016-10-12T02:29:22.687Z,0
2016-10-12T02:30:22.717Z,0
2016-10-12T02:31:22.734Z,0
2016-10-12T02:32:22.767Z,0
2016-10-12T02:33:21.856Z,0
2016-10-12T02:34:22.175Z,0
2016-10-12T02:35:22.513Z,0
2016-10-12T02:36:22.594Z,0
2016-10-12T02:37:22.527Z,0
2016-10-12T02:38:22.922Z,0
2016-10-12T02:39:22.556Z,0
2016-10-12T02:40:22.586Z,0
2016-10-12T02:41:22.617Z,0
2016-10-12T02:42:22.616Z,0
2016-10-12T02:43:22.968Z,0
2016-10-12T02:44:22.981Z,0
2016-10-12T02:45:22.677Z,0
2016-10-12T02:46:23.001Z,0
2016-10-12T02:47:23.156Z,0
2016-10-12T02:48:22.723Z,0
2016-10-12T02:49:23.047Z,0
2016-10-12T02:50:22.761Z,0
2016-10-12T02:51:22.793Z,0
2016-10-12T02:52:23.157Z,0
2016-10-12T02:53:23.129Z,0
2016-10-12T02:54:22.838Z,0
2016-10-12T02:55:23.167Z,0
2016-10-12T02:56:23.187Z,0
2016-10-12T02:57:23.221Z,0
2016-10-12T02:58:23.567Z,0
2016-10-12T02:59:23.249Z,0
2016-10-12T03:00:23.277Z,0
2016-10-12T03:01:23.419Z,0
2016-10-12T03:02:23.337Z,0
2016-10-12T03:03:23.481Z,0
2016-10-12T03:04:22.724Z,0
2016-10-12T03:05:23.050Z,0
2016-10-12T03:06:23.368Z,0
2016-10-12T03:07:23.378Z,0
2016-10-12T03:08:23.409Z,0
2016-10-12T03:09:23.417Z,0
2016-10-12T03:10:23.449Z,0
2016-10-12T03:11:23.465Z,0
2016-10-12T03:12:23.460Z,0
2016-10-12T03:13:23.199Z,0
2016-10-12T03:14:23.506Z,0
2016-10-12T03:15:23.226Z,0
2016-10-12T03:16:23.596Z,0
2016-10-12T03:17:23.574Z,0
2016-10-12T03:18:23.589Z,0
2016-10-12T03:19:22.997Z,0
2016-10-12T03:20:23.319Z,0
2016-10-12T03:21:23.672Z,0
2016-10-12T03:22:23.365Z,0
2016-10-12T03:23:23.465Z,0
2016-10-12T03:24:23.682Z,0
2016-10-12T03:25:23.693Z,0
2016-10-12T03:26:23.738Z,0
2016-10-12T03:27:23.828Z,0
2016-10-12T03:28:23.818Z,0
2016-10-12T03:29:23.908Z,0
2016-10-12T03:30:23.797Z,0
2016-10-12T03:31:23.517Z,0
2016-10-12T03:32:23.940Z,0
2016-10-12T03:33:23.869Z,0
2016-10-12T03:34:23.930Z,0
2016-10-12T03:35:23.941Z,0
2016-10-12T03:36:23.592Z,0
2016-10-12T03:37:23.920Z,0
2016-10-12T03:38:23.936Z,0
2016-10-12T03:39:23.968Z,0
2016-10-12T03:40:23.781Z,0
2016-10-12T03:41:23.823Z,0
2016-10-12T03:42:24.121Z,0
2016-10-12T03:43:23.721Z,0
2016-10-12T03:44:24.067Z,0
2016-10-12T03:45:24.114Z,0
2016-10-12T03:46:23.778Z,0
2016-10-12T03:47:23.788Z,0
2016-10-12T03:48:24.117Z,0
2016-10-12T03:49:24.117Z,0
2016-10-12T03:50:23.838Z,0
2016-10-12T03:51:24.181Z,0
2016-10-12T03:52:24.197Z,0
2016-10-12T03:53:24.357Z,0
2016-10-12T03:54:24.219Z,0
2016-10-12T03:55:24.349Z,0
2016-10-12T03:56:24.091Z,0
2016-10-12T03:57:24.379Z,0
2016-10-12T03:58:24.070Z,0
2016-10-12T03:59:24.593Z,0
2016-10-12T04:00:24.018Z,0
2016-10-12T04:01:24.403Z,0
2016-10-12T04:02:24.061Z,0
2016-10-12T04:03:24.069Z,0
2016-10-12T04:04:24.394Z,0
2016-10-12T04:05:24.422Z,0
2016-10-12T04:06:24.435Z,0
2016-10-12T04:07:24.459Z,0
2016-10-12T04:08:24.169Z,0
2016-10-12T04:09:24.269Z,0
2016-10-12T04:10:24.211Z,0
2016-10-12T04:11:24.267Z,0
2016-10-12T04:12:24.228Z,0
2016-10-12T04:13:24.246Z,0
2016-10-12T04:14:24.629Z,0
2016-10-12T04:15:24.598Z,0
2016-10-12T04:16:24.613Z,0
2016-10-12T04:17:24.629Z,0
2016-10-12T04:18:56.627Z,0
2016-10-12T04:19:24.659Z,0
2016-10-12T04:20:24.662Z,0
2016-10-12T04:21:24.385Z,0
2016-10-12T04:22:24.710Z,0
2016-10-12T04:23:24.750Z,0
2016-10-12T04:24:24.535Z,0
2016-10-12T04:25:24.460Z,0
2016-10-12T04:26:24.785Z,0
2016-10-12T04:27:24.801Z,0
2016-10-12T04:28:24.516Z,0
2016-10-12T04:29:24.832Z,0
2016-10-12T04:30:24.951Z,0
2016-10-12T04:31:24.875Z,0
2016-10-12T04:32:24.558Z,0
2016-10-12T04:33:24.903Z,0
2016-10-12T04:34:24.593Z,0
2016-10-12T04:35:24.932Z,0
2016-10-12T04:36:24.954Z,0
2016-10-12T04:37:24.977Z,0
2016-10-12T04:38:24.679Z,0
2016-10-12T04:39:25.020Z,0
2016-10-12T04:40:25.050Z,0
2016-10-12T04:41:25.085Z,0
2016-10-12T04:42:25.060Z,0
2016-10-12T04:43:25.110Z,0
2016-10-12T04:44:24.783Z,0
2016-10-12T04:45:25.129Z,0
2016-10-12T04:46:25.249Z,0
2016-10-12T04:47:25.158Z,0
2016-10-12T04:48:25.172Z,0
2016-10-12T04:49:24.554Z,0
2016-10-12T04:50:25.228Z,0
2016-10-12T04:51:24.921Z,0
2016-10-12T04:52:24.946Z,0
2016-10-12T04:53:24.946Z,0
2016-10-12T04:54:24.645Z,0
2016-10-12T04:55:24.991Z,0
2016-10-12T04:56:25.311Z,0
2016-10-12T04:57:25.322Z,0
2016-10-12T04:58:24.724Z,0
2016-10-12T04:59:25.066Z,0
2016-10-12T05:00:25.389Z,0
2016-10-12T05:01:24.773Z,0
2016-10-12T05:02:25.526Z,0
2016-10-12T05:03:25.440Z,0
2016-10-12T05:04:25.143Z,0
2016-10-12T05:05:25.210Z,0
2016-10-12T05:06:25.675Z,0
2016-10-12T05:07:25.509Z,0
2016-10-12T05:08:25.840Z,0
2016-10-12T05:09:25.554Z,0
2016-10-12T05:10:25.554Z,0
2016-10-12T05:11:24.998Z,0
2016-10-12T05:12:25.424Z,0
2016-10-12T05:13:25.740Z,0
2016-10-12T05:14:25.327Z,0
2016-10-12T05:15:25.731Z,0
2016-10-12T05:16:25.725Z,0
2016-10-12T05:17:25.694Z,4
2016-10-12T05:18:25.400Z,4
2016-10-12T05:19:25.736Z,0
2016-10-12T05:20:25.774Z,4
2016-10-12T05:21:25.424Z,4
2016-10-12T05:22:25.765Z,4
2016-10-12T05:23:25.776Z,4
2016-10-12T05:24:25.635Z,8
2016-10-12T05:25:25.826Z,8
2016-10-12T05:26:25.531Z,8
2016-10-12T05:27:25.904Z,12
2016-10-12T05:28:25.894Z,12
2016-10-12T05:29:25.946Z,16
2016-10-12T05:30:25.695Z,16
2016-10-12T05:31:25.934Z,20
2016-10-12T05:32:25.747Z,20
2016-10-12T05:33:25.944Z,24
2016-10-12T05:34:25.987Z,28
2016-10-12T05:35:25.675Z,32
2016-10-12T05:36:26.001Z,36
2016-10-12T05:37:26.016Z,40
2016-10-12T05:38:26.033Z,48
2016-10-12T05:39:26.059Z,56
2016-10-12T05:40:26.119Z,64
2016-10-12T05:41:26.187Z,76
2016-10-12T05:42:26.147Z,84
2016-10-12T05:43:26.216Z,100
2016-10-12T05:44:25.864Z,108
2016-10-12T05:45:26.176Z,124
2016-10-12T05:46:25.863Z,136
2016-10-12T05:47:25.968Z,152
2016-10-12T05:48:26.218Z,172
2016-10-12T05:49:25.943Z,196
2016-10-12T05:50:26.256Z,216
2016-10-12T05:51:26.246Z,244
2016-10-12T05:52:26.285Z,268
2016-10-12T05:53:26.301Z,300
2016-10-12T05:54:26.458Z,328
2016-10-12T05:55:26.442Z,352
2016-10-12T05:56:26.384Z,368
2016-10-12T05:57:26.453Z,384
2016-10-12T05:58:26.096Z,404
2016-10-12T05:59:26.416Z,432
2016-10-12T06:00:26.421Z,460
2016-10-12T06:01:26.127Z,496
2016-10-12T06:02:26.453Z,532
2016-10-12T06:03:25.853Z,572
2016-10-12T06:04:26.187Z,600
2016-10-12T06:05:26.517Z,620
2016-10-12T06:06:26.513Z,644
2016-10-12T06:07:26.535Z,684
2016-10-12T06:08:26.049Z,740
2016-10-12T06:09:26.584Z,788
2016-10-12T06:10:26.674Z,828
2016-10-12T06:11:26.614Z,852
2016-10-12T06:12:26.660Z,856
2016-10-12T06:13:26.641Z,868
2016-10-12T06:14:26.346Z,908
2016-10-12T06:15:26.681Z,948
2016-10-12T06:16:26.708Z,968
2016-10-12T06:17:26.716Z,972
2016-10-12T06:18:27.175Z,976
2016-10-12T06:19:26.422Z,1004
2016-10-12T06:20:26.458Z,1008
2016-10-12T06:21:26.798Z,964
2016-10-12T06:22:27.215Z,940
2016-10-12T06:23:27.113Z,956
2016-10-12T06:24:26.955Z,980
2016-10-12T06:25:26.568Z,1004
2016-10-12T06:26:27.145Z,1072
2016-10-12T06:27:27.085Z,1120
2016-10-12T06:28:26.287Z,1160
2016-10-12T06:29:26.309Z,1248
2016-10-12T06:30:27.137Z,1292
2016-10-12T06:31:27.107Z,1292
2016-10-12T06:32:27.093Z,1340
2016-10-12T06:33:26.380Z,1288
2016-10-12T06:34:27.115Z,1244
2016-10-12T06:35:27.318Z,1252
2016-10-12T06:36:26.797Z,1152
2016-10-12T06:37:27.318Z,1196
2016-10-12T06:38:27.125Z,1184
2016-10-12T06:39:26.469Z,1184
2016-10-12T06:40:26.488Z,1236
2016-10-12T06:41:27.287Z,1320
2016-10-12T06:42:26.834Z,1372
2016-10-12T06:43:27.320Z,1372
2016-10-12T06:44:27.186Z,1352
2016-10-12T06:45:27.277Z,1320
2016-10-12T06:46:27.208Z,1272
2016-10-12T06:47:27.351Z,1208
2016-10-12T06:48:26.946Z,1176
2016-10-12T06:49:27.201Z,1176
2016-10-12T06:50:27.314Z,1160
2016-10-12T06:51:27.297Z,1124
2016-10-12T06:52:27.388Z,1100
2016-10-12T06:53:27.020Z,1088
2016-10-12T06:54:27.423Z,1028
2016-10-12T06:55:27.387Z,1004
2016-10-12T06:56:27.486Z,988
2016-10-12T06:57:27.278Z,1016
2016-10-12T06:58:27.526Z,1040
2016-10-12T06:59:26.849Z,1036
2016-10-12T07:00:27.471Z,1064
2016-10-12T07:01:27.500Z,1068
2016-10-12T07:02:27.567Z,948
2016-10-12T07:03:27.565Z,752
2016-10-12T07:04:27.440Z,576
2016-10-12T07:05:27.577Z,476
2016-10-12T07:06:27.574Z,500
2016-10-12T07:07:27.582Z,640
2016-10-12T07:08:27.622Z,776
2016-10-12T07:09:27.014Z,772
2016-10-12T07:10:27.638Z,800
2016-10-12T07:11:27.560Z,880
2016-10-12T07:12:27.678Z,892
2016-10-12T07:13:27.704Z,932
2016-10-12T07:14:27.763Z,904
2016-10-12T07:15:27.576Z,992
2016-10-12T07:16:27.443Z,1212
2016-10-12T07:17:27.662Z,1220
2016-10-12T07:18:27.973Z,1180
2016-10-12T07:19:27.635Z,1168
2016-10-12T07:20:27.509Z,1180
2016-10-12T07:21:27.606Z,1192
2016-10-12T07:22:27.878Z,1284
2016-10-12T07:23:27.775Z,1472
2016-10-12T07:24:27.530Z,1600
2016-10-12T07:25:27.621Z,1792
2016-10-12T07:26:27.831Z,1960
2016-10-12T07:27:27.957Z,2172
2016-10-12T07:28:27.987Z,2284
2016-10-12T07:29:28.104Z,2280
2016-10-12T07:30:27.726Z,2344
2016-10-12T07:31:27.707Z,2572
2016-10-12T07:32:27.772Z,2756
2016-10-12T07:33:27.730Z,2776
2016-10-12T07:34:27.780Z,2784
2016-10-12T07:35:27.763Z,2732
2016-10-12T07:36:27.809Z,2692
2016-10-12T07:37:27.845Z,2764
2016-10-12T07:38:28.150Z,2952
2016-10-12T07:39:27.858Z,3156
2016-10-12T07:40:27.707Z,3360
2016-10-12T07:41:27.897Z,3584
2016-10-12T07:42:28.276Z,3880
2016-10-12T07:43:28.474Z,4240
2016-10-12T07:44:28.359Z,4528
2016-10-12T07:45:27.655Z,4848
2016-10-12T07:46:28.037Z,5304
2016-10-12T07:47:28.311Z,5800
2016-10-12T07:48:28.319Z,6348
2016-10-12T07:49:28.349Z,6936
2016-10-12T07:50:28.368Z,7424
2016-10-12T07:51:28.182Z,7780
2016-10-12T07:52:28.388Z,8116
2016-10-12T07:53:28.157Z,8016
2016-10-12T07:54:28.439Z,7700
2016-10-12T07:55:28.451Z,7492
2016-10-12T07:56:28.548Z,7548
2016-10-12T07:57:27.930Z,7700
2016-10-12T07:58:28.511Z,7916
2016-10-12T07:59:28.228Z,8280
2016-10-12T08:00:28.218Z,8660
2016-10-12T08:02:27.966Z,9536
2016-10-12T08:03:28.599Z,9184
2016-10-12T08:04:28.297Z,9044
2016-10-12T08:05:28.308Z,9024
2016-10-12T08:06:28.680Z,8780
2016-10-12T08:07:28.738Z,8468
2016-10-12T08:08:28.686Z,7816
2016-10-12T08:09:28.697Z,6496
2016-10-12T08:10:28.427Z,6096
2016-10-12T08:11:28.529Z,5732
2016-10-12T08:12:28.777Z,5848
2016-10-12T08:13:28.788Z,5712
2016-10-12T08:14:28.804Z,6488
2016-10-12T08:15:28.821Z,8260
2016-10-12T08:16:28.523Z,10296
2016-10-12T08:17:28.540Z,8268
2016-10-12T08:18:28.548Z,7772
2016-10-12T08:19:28.584Z,8268
2016-10-12T08:20:28.662Z,8532
2016-10-12T08:21:28.828Z,9088
2016-10-12T08:22:28.347Z,9200
2016-10-12T08:23:28.651Z,9612
2016-10-12T08:24:28.988Z,9704
2016-10-12T08:25:28.712Z,9872
2016-10-12T08:26:28.408Z,10132
2016-10-12T08:27:28.746Z,9852
2016-10-12T08:28:29.067Z,9756
2016-10-12T08:29:28.779Z,9348
2016-10-12T08:30:29.109Z,9696
2016-10-12T08:31:29.134Z,9908
2016-10-12T08:32:28.827Z,9464
2016-10-12T08:33:28.859Z,9132
2016-10-12T08:34:29.209Z,9156
2016-10-12T08:35:28.891Z,9904
2016-10-12T08:36:28.913Z,9808
2016-10-12T08:37:28.929Z,9660
2016-10-12T08:38:28.937Z,9252
2016-10-12T08:39:29.280Z,8732
2016-10-12T08:40:29.304Z,8552
2016-10-12T08:41:28.999Z,8528
2016-10-12T08:42:29.131Z,7908
2016-10-12T08:43:29.355Z,7108
2016-10-12T08:44:29.379Z,6576
2016-10-12T08:45:29.094Z,6420
2016-10-12T08:46:29.141Z,7328
2016-10-12T08:47:29.481Z,7008
2016-10-12T08:48:29.134Z,6932
2016-10-12T08:49:29.164Z,7732
2016-10-12T08:50:29.173Z,8300
2016-10-12T08:51:29.213Z,7888
2016-10-12T08:52:29.230Z,7028
2016-10-12T08:53:29.547Z,6624
2016-10-12T08:54:29.573Z,6120
2016-10-12T08:55:29.598Z,6004
2016-10-12T08:56:29.307Z,5944
2016-10-12T08:57:29.614Z,6584
2016-10-12T08:58:29.336Z,7108
2016-10-12T08:59:29.713Z,7360
2016-10-12T09:00:29.698Z,7664
2016-10-12T09:01:29.792Z,8180
2016-10-12T09:02:29.736Z,9152
2016-10-12T09:03:29.760Z,9792
2016-10-12T09:04:29.783Z,9940
2016-10-12T09:05:29.786Z,9840
2016-10-12T09:06:29.829Z,9768
2016-10-12T09:07:29.835Z,9872
2016-10-12T09:08:29.218Z,9996
2016-10-12T09:09:30.006Z,10136
2016-10-12T09:10:29.620Z,10388
2016-10-12T09:11:29.273Z,10648
2016-10-12T09:12:30.001Z,10776
2016-10-12T09:13:29.979Z,10748
2016-10-12T09:14:29.657Z,10656
2016-10-12T09:15:29.408Z,10384
2016-10-12T09:16:30.003Z,9992
2016-10-12T09:17:30.018Z,9376
2016-10-12T09:18:29.707Z,8832
2016-10-12T09:19:29.749Z,8512
2016-10-12T09:20:30.096Z,8204
2016-10-12T09:21:30.107Z,7668
2016-10-12T09:22:29.866Z,6924
2016-10-12T09:23:29.839Z,6196
2016-10-12T09:24:30.160Z,5628
2016-10-12T09:26:01.887Z,5576
2016-10-12T09:26:30.411Z,5640
2016-10-12T09:27:29.913Z,5748
2016-10-12T09:28:30.261Z,6256
2016-10-12T09:29:29.690Z,6800
2016-10-12T09:30:30.291Z,7224
2016-10-12T09:31:30.299Z,7536
2016-10-12T09:32:30.120Z,7896
2016-10-12T09:33:30.040Z,8584
2016-10-12T09:34:30.365Z,9300
2016-10-12T09:35:30.169Z,10016
2016-10-12T09:36:29.835Z,10328
2016-10-12T09:37:30.202Z,10320
2016-10-12T09:38:30.514Z,10248
2016-10-12T09:39:29.899Z,10304
2016-10-12T09:40:30.165Z,10608
2016-10-12T09:41:30.202Z,10824
2016-10-12T09:42:30.197Z,11288
2016-10-12T09:43:30.539Z,11244
2016-10-12T09:44:30.247Z,11144
2016-10-12T09:45:30.581Z,11000
2016-10-12T09:46:30.287Z,10972
2016-10-12T09:47:30.639Z,10824
2016-10-12T09:48:30.336Z,10480
2016-10-12T09:49:30.109Z,10164
2016-10-12T09:50:29.760Z,10020
2016-10-12T09:51:30.130Z,9836
2016-10-12T09:52:30.423Z,9648
2016-10-12T09:53:30.740Z,8644
2016-10-12T09:54:30.701Z,8244
2016-10-12T09:55:30.987Z,7564
2016-10-12T09:56:30.978Z,7628
2016-10-12T09:57:31.120Z,9180
2016-10-12T09:58:31.000Z,8592
2016-10-12T09:59:30.572Z,7396
2016-10-12T10:00:30.578Z,8852
2016-10-12T10:01:30.296Z,9656
2016-10-12T10:02:31.075Z,10020
2016-10-12T10:03:31.047Z,9744
2016-10-12T10:04:30.379Z,8476
2016-10-12T10:05:31.079Z,7380
2016-10-12T10:06:30.698Z,6980
2016-10-12T10:07:31.160Z,7716
2016-10-12T10:08:30.776Z,8336
2016-10-12T10:09:31.118Z,8144
2016-10-12T10:10:30.826Z,7964
2016-10-12T10:11:31.199Z,7252
2016-10-12T10:12:30.870Z,6912
2016-10-12T10:13:30.973Z,7192
2016-10-12T10:14:31.269Z,7028
2016-10-12T10:15:31.301Z,6764
2016-10-12T10:16:31.253Z,6356
2016-10-12T10:17:30.909Z,5824
2016-10-12T10:18:31.296Z,5860
2016-10-12T10:19:31.276Z,5452
2016-10-12T10:20:31.277Z,5424
2016-10-12T10:21:31.311Z,5364
2016-10-12T10:22:31.226Z,5556
2016-10-12T10:23:30.917Z,6020
2016-10-12T10:24:31.209Z,5488
2016-10-12T10:25:31.399Z,5568
2016-10-12T10:26:31.232Z,5756
2016-10-12T10:27:31.258Z,5832
2016-10-12T10:28:31.187Z,5696
2016-10-12T10:29:31.558Z,5944
2016-10-12T10:30:31.589Z,5828
2016-10-12T10:31:31.488Z,5784
2016-10-12T10:32:31.521Z,5932
2016-10-12T10:33:31.298Z,6216
2016-10-12T10:34:31.495Z,5676
2016-10-12T10:35:30.959Z,5520
2016-10-12T10:36:31.589Z,5440
2016-10-12T10:37:31.617Z,5452
2016-10-12T10:38:31.552Z,5456
2016-10-12T10:39:31.350Z,5372
2016-10-12T10:40:31.439Z,5256
2016-10-12T10:41:31.679Z,5104
2016-10-12T10:42:31.829Z,5084
2016-10-12T10:43:31.413Z,4952
2016-10-12T10:44:31.335Z,4828
2016-10-12T10:45:31.631Z,4688
2016-10-12T10:46:31.487Z,4504
2016-10-12T10:47:32.124Z,4396
2016-10-12T10:48:31.519Z,4716
2016-10-12T10:49:31.850Z,4768
2016-10-12T10:50:31.601Z,4472
2016-10-12T10:51:32.173Z,4404
2016-10-12T10:52:31.889Z,4376
2016-10-12T10:53:31.858Z,4564
2016-10-12T10:54:32.250Z,4384
2016-10-12T10:55:31.973Z,4276
2016-10-12T10:56:31.658Z,4436
2016-10-12T10:57:31.685Z,4744
2016-10-12T10:58:32.124Z,4484
2016-10-12T10:59:32.040Z,4796
2016-10-12T11:00:32.021Z,4740
2016-10-12T11:01:31.829Z,5140
2016-10-12T11:02:31.501Z,5248
2016-10-12T11:03:32.165Z,5244
2016-10-12T11:04:31.940Z,5156
2016-10-12T11:05:32.141Z,4876
2016-10-12T11:06:31.852Z,5128
2016-10-12T11:07:31.884Z,5108
2016-10-12T11:08:32.040Z,5368
2016-10-12T11:09:32.210Z,5132
2016-10-12T11:10:31.931Z,5368
2016-10-12T11:11:32.273Z,5848
2016-10-12T11:12:32.277Z,5840
2016-10-12T11:13:32.310Z,6232
2016-10-12T11:14:31.999Z,7044
2016-10-12T11:15:32.505Z,7732
2016-10-12T11:16:32.271Z,8632
2016-10-12T11:17:31.856Z,8664
2016-10-12T11:18:32.500Z,9168
2016-10-12T11:19:32.412Z,10024
2016-10-12T11:20:32.165Z,10652
2016-10-12T11:21:32.435Z,10636
2016-10-12T11:22:32.476Z,11240
2016-10-12T11:23:32.869Z,10048
2016-10-12T11:24:32.173Z,8724
2016-10-12T11:25:32.540Z,6792
2016-10-12T11:26:32.220Z,5120
2016-10-12T11:27:32.614Z,4800
2016-10-12T11:28:32.646Z,5548
2016-10-12T11:29:32.297Z,6656
2016-10-12T11:30:32.620Z,7492
2016-10-12T11:31:32.406Z,8492
2016-10-12T11:32:32.358Z,8580
2016-10-12T11:33:32.391Z,7852
2016-10-12T11:34:32.693Z,7424
2016-10-12T11:35:32.719Z,7516
2016-10-12T11:36:32.440Z,8072
2016-10-12T11:37:32.143Z,8348
2016-10-12T11:38:32.781Z,8808
2016-10-12T11:39:32.801Z,9100
2016-10-12T11:40:32.818Z,9412
2016-10-12T11:41:32.532Z,10392
2016-10-12T11:42:33.058Z,10512
2016-10-12T11:43:32.950Z,10312
2016-10-12T11:44:32.690Z,10040
2016-10-12T11:45:32.940Z,9076
2016-10-12T11:46:33.002Z,7516
2016-10-12T11:47:33.000Z,6304
2016-10-12T11:48:32.981Z,6184
2016-10-12T11:49:33.004Z,6188
2016-10-12T11:50:33.020Z,6304
2016-10-12T11:51:32.741Z,6476
2016-10-12T11:52:33.070Z,6076
2016-10-12T11:53:33.097Z,6240
2016-10-12T11:54:33.119Z,6120
2016-10-12T11:55:33.121Z,5784
2016-10-12T11:56:33.158Z,5608
2016-10-12T11:57:33.160Z,5856
2016-10-12T11:58:33.237Z,6520
2016-10-12T11:59:33.212Z,7140
2016-10-12T12:00:33.258Z,7804
2016-10-12T12:01:32.940Z,8080
2016-10-12T12:02:33.281Z,8080
2016-10-12T12:03:32.988Z,8020
2016-10-12T12:04:33.289Z,8052
2016-10-12T12:05:33.018Z,8016
2016-10-12T12:06:33.455Z,8104
2016-10-12T12:07:33.366Z,8032
2016-10-12T12:08:33.068Z,8468
2016-10-12T12:09:32.774Z,8428
2016-10-12T12:10:33.439Z,7972
2016-10-12T12:11:33.132Z,7440
2016-10-12T12:12:33.490Z,7828
2016-10-12T12:13:33.606Z,8268
2016-10-12T12:14:33.520Z,8188
2016-10-12T12:15:32.904Z,7500
2016-10-12T12:16:32.988Z,6688
2016-10-12T12:17:33.541Z,5860
2016-10-12T12:18:33.639Z,5288
2016-10-12T12:19:33.735Z,5188
2016-10-12T12:20:33.320Z,5600
2016-10-12T12:21:33.685Z,5620
2016-10-12T12:22:33.680Z,5492
2016-10-12T12:23:33.431Z,5384
2016-10-12T12:24:33.727Z,5428
2016-10-12T12:25:33.549Z,6200
2016-10-12T12:26:33.736Z,7404
2016-10-12T12:27:33.785Z,8548
2016-10-12T12:28:33.781Z,9288
2016-10-12T12:29:33.493Z,10204
2016-10-12T12:30:33.581Z,10572
2016-10-12T12:31:33.224Z,10476
2016-10-12T12:32:33.256Z,10012
2016-10-12T12:33:34.106Z,9796
2016-10-12T12:34:33.606Z,9376
2016-10-12T12:35:33.675Z,9272
2016-10-12T12:36:33.941Z,10000
2016-10-12T12:37:33.957Z,9596
2016-10-12T12:38:33.989Z,8516
2016-10-12T12:39:33.717Z,7864
2016-10-12T12:40:34.052Z,7128
2016-10-12T12:41:34.042Z,6484
2016-10-12T12:42:33.757Z,6200
2016-10-12T12:43:34.128Z,6416
2016-10-12T12:44:34.296Z,7624
2016-10-12T12:45:34.203Z,8164
2016-10-12T12:46:34.206Z,8420
2016-10-12T12:47:34.178Z,8796
2016-10-12T12:48:34.228Z,8904
2016-10-12T12:49:34.012Z,9884
2016-10-12T12:50:33.966Z,10864
2016-10-12T12:51:34.270Z,11276
2016-10-12T12:52:34.267Z,11108
2016-10-12T12:53:34.292Z,10872
2016-10-12T12:54:34.074Z,9504
2016-10-12T12:55:34.338Z,9336
2016-10-12T12:56:34.347Z,10664
2016-10-12T12:57:33.797Z,10300
2016-10-12T12:58:34.480Z,8884
2016-10-12T12:59:34.505Z,8576
2016-10-12T13:00:34.155Z,8692
2016-10-12T13:01:34.142Z,9236
2016-10-12T13:02:33.846Z,9460
2016-10-12T13:03:33.657Z,8968
2016-10-12T13:04:34.527Z,8812
2016-10-12T13:05:34.566Z,9224
2016-10-12T13:06:34.257Z,9412
2016-10-12T13:07:34.808Z,9440
2016-10-12T13:08:34.919Z,9068
2016-10-12T13:09:34.880Z,8984
2016-10-12T13:10:34.945Z,8872
2016-10-12T13:11:34.046Z,9688
2016-10-12T13:12:35.048Z,10272
2016-10-12T13:13:34.860Z,10800
2016-10-12T13:14:34.612Z,10856
2016-10-12T13:15:34.878Z,11068
2016-10-12T13:16:34.939Z,11736
2016-10-12T13:17:34.916Z,11460
2016-10-12T13:18:34.606Z,10696
2016-10-12T13:19:34.235Z,10288
2016-10-12T13:20:34.908Z,9764
2016-10-12T13:21:34.992Z,9376
2016-10-12T13:22:35.000Z,9136
2016-10-12T13:23:34.616Z,8952
2016-10-12T13:24:34.982Z,8800
2016-10-12T13:25:34.990Z,8808
2016-10-12T13:26:34.986Z,9232
2016-10-12T13:27:34.691Z,9168
2016-10-12T13:28:35.016Z,9124
2016-10-12T13:29:35.045Z,9296
2016-10-12T13:30:34.748Z,9472
2016-10-12T13:31:35.093Z,9316
2016-10-12T13:32:35.244Z,9036
2016-10-12T13:33:34.821Z,8464
2016-10-12T13:34:35.007Z,7632
2016-10-12T13:35:34.871Z,7140
2016-10-12T13:36:35.226Z,7052
2016-10-12T13:38:07.226Z,6360
2016-10-12T13:38:35.256Z,6140
2016-10-12T13:39:35.256Z,5940
2016-10-12T13:40:35.284Z,5308
2016-10-12T13:41:35.308Z,4636
2016-10-12T13:42:35.336Z,4556
2016-10-12T13:43:35.390Z,4628
2016-10-12T13:44:35.080Z,4432
2016-10-12T13:45:35.085Z,4244
2016-10-12T13:46:35.146Z,4212
2016-10-12T13:47:35.457Z,4156
2016-10-12T13:48:35.131Z,4068
2016-10-12T13:49:35.467Z,3964
2016-10-12T13:50:35.168Z,3664
2016-10-12T13:51:35.526Z,3292
2016-10-12T13:52:35.214Z,3476
2016-10-12T13:53:35.248Z,4112